Terminal Aerodrome Forecast
Issued by NWS Mt. Holly, NJ

Home | Current Version | Previous Version | Text Only | Print | Product List | Glossary On
Versions: 1 2 3 4 5 6 7 8 9 10 11 12 13 14 15 16 17 18 19 20 21 22 23 24
000
FTUS41 KPHI 181200 AAA
TAFTTN
TAF AMD
KTTN 181231Z 1813/1912 30010G18KT P6SM SCT040
      TEMPO 1813/1814 BKN040
     FM181400 31013G23KT P6SM SCT040
     FM182100 31010KT P6SM FEW040=

USA.gov is the U.S. government's official web portal to all federal, state and local government web resources and services.